createdAt,value
2022-11-16T00:01:05.472Z,3.88
2022-11-16T00:03:33.029Z,3.89
2022-11-16T00:06:01.406Z,4.05
2022-11-16T00:08:33.463Z,4.05
2022-11-16T00:11:14.757Z,3.92
2022-11-16T00:13:43.067Z,3.93
2022-11-16T00:16:16.053Z,3.93
2022-11-16T00:18:44.291Z,3.88
2022-11-16T00:21:10.851Z,3.78
2022-11-16T00:23:38.738Z,4.02
2022-11-16T00:26:07.026Z,4.03
2022-11-16T00:28:34.388Z,4.04
2022-11-16T00:31:06.418Z,4.07
2022-11-16T00:33:33.787Z,4.07
2022-11-16T00:36:05.606Z,4.05
2022-11-16T00:38:32.923Z,3.99
2022-11-16T00:40:59.857Z,4.13
2022-11-16T00:43:27.176Z,4.03
2022-11-16T00:45:53.872Z,4.20
2022-11-16T00:48:20.640Z,4.20
2022-11-16T00:50:47.874Z,4.25
2022-11-16T00:53:17.719Z,4.27
2022-11-16T00:55:45.949Z,4.31
2022-11-16T00:58:14.920Z,4.34
2022-11-16T01:00:44.066Z,4.32
2022-11-16T01:03:11.171Z,4.35
2022-11-16T01:05:37.826Z,4.31
2022-11-16T01:08:04.696Z,4.29
2022-11-16T01:10:31.367Z,4.43
2022-11-16T01:12:58.576Z,4.26
2022-11-16T01:15:27.224Z,4.47
2022-11-16T01:17:55.463Z,4.49
2022-11-16T01:20:25.132Z,4.43
2022-11-16T01:22:52.342Z,4.31
2022-11-16T01:25:19.261Z,4.41
2022-11-16T01:27:45.919Z,4.34
2022-11-16T01:30:19.142Z,4.43
2022-11-16T01:32:56.970Z,4.47
2022-11-16T01:35:23.597Z,4.49
2022-11-16T01:37:50.180Z,4.45
2022-11-16T01:40:17.414Z,4.55
2022-11-16T01:42:44.256Z,4.51
2022-11-16T01:45:21.524Z,4.49
2022-11-16T01:47:52.053Z,4.32
2022-11-16T01:50:21.334Z,4.34
2022-11-16T01:52:57.385Z,4.52
2022-11-16T01:55:27.980Z,4.28
2022-11-16T01:58:06.734Z,4.35
2022-11-16T02:00:35.165Z,4.51
2022-11-16T02:03:21.623Z,4.67
2022-11-16T02:06:25.173Z,4.82
2022-11-16T02:09:19.291Z,4.87
2022-11-16T02:12:06.424Z,4.73
2022-11-16T02:14:59.909Z,4.53
2022-11-16T02:17:38.460Z,4.64
2022-11-16T02:20:37.552Z,4.60
2022-11-16T02:23:23.110Z,4.63
2022-11-16T02:26:13.148Z,4.69
2022-11-16T02:28:46.273Z,4.72
2022-11-16T02:31:19.382Z,4.71
2022-11-16T02:33:50.169Z,4.59
2022-11-16T02:36:22.344Z,4.78
2022-11-16T02:38:56.013Z,4.68
2022-11-16T02:41:26.044Z,4.53
2022-11-16T02:43:59.998Z,4.68
2022-11-16T02:46:31.099Z,4.68
2022-11-16T02:49:02.452Z,4.68
2022-11-16T02:51:30.472Z,4.72
2022-11-16T02:54:04.450Z,4.77
2022-11-16T02:56:43.267Z,4.60
2022-11-16T02:59:15.218Z,4.83
2022-11-16T03:01:54.762Z,4.77
2022-11-16T03:04:30.513Z,4.65
2022-11-16T03:07:02.014Z,4.81
2022-11-16T03:09:31.869Z,4.81
2022-11-16T03:12:02.956Z,4.82
2022-11-16T03:14:39.286Z,4.78
2022-11-16T03:17:11.321Z,4.84
2022-11-16T03:20:13.009Z,4.85
2022-11-16T03:22:44.793Z,4.87
2022-11-16T03:25:15.862Z,4.76
2022-11-16T03:27:51.239Z,4.68
2022-11-16T03:30:23.589Z,4.90
2022-11-16T03:33:18.431Z,4.65
2022-11-16T03:35:52.570Z,4.75
2022-11-16T03:38:22.196Z,4.42
2022-11-16T03:40:50.955Z,4.79
2022-11-16T03:43:20.066Z,4.86
2022-11-16T03:45:47.509Z,4.84
2022-11-16T03:48:14.268Z,4.85
2022-11-16T03:50:42.712Z,4.84
2022-11-16T03:53:09.504Z,4.88
2022-11-16T03:55:37.471Z,4.90
2022-11-16T03:58:04.446Z,4.88
2022-11-16T04:00:32.250Z,4.88
2022-11-16T04:03:05.081Z,4.93
2022-11-16T04:05:50.062Z,4.92
2022-11-16T04:08:36.806Z,4.92
2022-11-16T04:11:23.257Z,4.92
2022-11-16T04:14:09.885Z,4.88
2022-11-16T04:16:58.125Z,4.52
2022-11-16T04:19:43.318Z,4.67
2022-11-16T04:22:42.138Z,4.72
2022-11-16T04:25:13.826Z,4.79
2022-11-16T04:27:59.211Z,4.75
2022-11-16T04:30:26.281Z,4.22
2022-11-16T04:33:11.790Z,4.76
2022-11-16T04:35:57.235Z,4.75
2022-11-16T04:38:23.854Z,4.71
2022-11-16T04:40:50.415Z,4.70
2022-11-16T04:43:17.860Z,4.74
2022-11-16T04:46:03.618Z,4.71
2022-11-16T04:48:37.784Z,4.75
2022-11-16T04:51:04.468Z,4.59
2022-11-16T04:53:32.260Z,4.79
2022-11-16T04:56:06.607Z,4.63
2022-11-16T04:58:33.881Z,4.57
2022-11-16T05:01:00.793Z,4.68
2022-11-16T05:03:27.942Z,4.75
2022-11-16T05:05:55.417Z,4.76
2022-11-16T05:08:22.044Z,4.49
2022-11-16T05:10:51.226Z,4.65
2022-11-16T05:13:18.336Z,4.70
2022-11-16T05:15:46.221Z,4.72
2022-11-16T05:18:12.942Z,4.70
2022-11-16T05:20:58.247Z,4.75
2022-11-16T05:23:43.701Z,4.70
2022-11-16T05:26:13.529Z,4.62
2022-11-16T05:28:40.055Z,4.62
2022-11-16T05:31:08.510Z,4.26
2022-11-16T05:33:35.469Z,4.31
2022-11-16T05:36:02.647Z,4.51
2022-11-16T05:38:29.058Z,4.47
2022-11-16T05:40:58.503Z,4.28
2022-11-16T05:43:25.173Z,4.44
2022-11-16T05:46:01.532Z,4.42
2022-11-16T05:48:28.165Z,4.33
2022-11-16T05:50:59.610Z,4.55
2022-11-16T05:53:28.316Z,4.29
2022-11-16T05:55:55.007Z,4.36
2022-11-16T05:58:23.160Z,4.53
2022-11-16T06:00:51.268Z,4.33
2022-11-16T06:03:19.191Z,4.41
2022-11-16T06:05:45.727Z,4.42
2022-11-16T06:08:14.535Z,4.46
2022-11-16T06:10:41.171Z,4.50
2022-11-16T06:13:08.085Z,4.39
2022-11-16T06:15:36.727Z,4.56
2022-11-16T06:18:03.262Z,4.62
2022-11-16T06:20:30.244Z,4.61
2022-11-16T06:22:57.030Z,4.64
2022-11-16T06:25:24.033Z,4.30
2022-11-16T06:27:50.684Z,4.61
2022-11-16T06:30:18.558Z,4.58
2022-11-16T06:32:45.128Z,4.60
2022-11-16T06:35:11.564Z,4.58
2022-11-16T06:37:39.268Z,4.41
2022-11-16T06:40:07.247Z,4.37
2022-11-16T06:42:36.633Z,4.32
2022-11-16T06:45:03.827Z,4.48
2022-11-16T06:47:36.016Z,4.35
2022-11-16T06:50:02.994Z,4.30
2022-11-16T06:52:30.177Z,4.18
2022-11-16T06:54:57.504Z,4.58
2022-11-16T06:57:24.131Z,4.63
2022-11-16T06:59:50.840Z,4.59
2022-11-16T07:02:17.834Z,4.62
2022-11-16T07:04:44.929Z,4.60
2022-11-16T07:07:11.385Z,4.64
2022-11-16T07:09:39.079Z,4.50
2022-11-16T07:12:05.857Z,4.56
2022-11-16T07:14:37.451Z,4.52
2022-11-16T07:17:09.515Z,4.76
2022-11-16T07:19:36.864Z,4.67
2022-11-16T07:22:04.276Z,4.81
2022-11-16T07:24:31.523Z,4.81
2022-11-16T07:26:58.451Z,4.80
2022-11-16T07:29:27.166Z,4.80
2022-11-16T07:32:12.517Z,4.80
2022-11-16T07:34:59.497Z,4.70
2022-11-16T07:37:27.418Z,4.80
2022-11-16T07:39:54.011Z,4.72
2022-11-16T07:42:21.809Z,4.53
2022-11-16T07:45:01.052Z,4.73
2022-11-16T07:47:27.617Z,4.68
2022-11-16T07:49:55.276Z,4.51
2022-11-16T07:52:25.232Z,4.80
2022-11-16T07:55:01.658Z,4.90
2022-11-16T07:57:29.818Z,4.51
2022-11-16T07:59:59.807Z,4.75
2022-11-16T08:02:29.397Z,4.75
2022-11-16T08:04:55.990Z,4.88
2022-11-16T08:07:25.993Z,4.92
2022-11-16T08:09:55.541Z,4.84
2022-11-16T08:12:22.557Z,4.90
2022-11-16T08:14:49.115Z,4.95
2022-11-16T08:17:15.673Z,4.98
2022-11-16T08:19:43.531Z,4.92
2022-11-16T08:22:13.205Z,5.09
2022-11-16T08:24:41.400Z,5.10
2022-11-16T08:27:08.710Z,5.02
2022-11-16T08:29:35.235Z,5.12
2022-11-16T08:32:04.620Z,5.12
2022-11-16T08:34:34.219Z,4.98
2022-11-16T08:37:00.784Z,5.03
2022-11-16T08:39:37.068Z,5.12
2022-11-16T08:42:03.535Z,5.29
2022-11-16T08:44:30.231Z,4.99
2022-11-16T08:47:00.692Z,5.30
2022-11-16T08:49:37.942Z,5.30
2022-11-16T08:52:04.761Z,5.39
2022-11-16T08:54:32.220Z,5.43
2022-11-16T08:56:59.289Z,5.62
2022-11-16T08:59:25.996Z,5.46
2022-11-16T09:01:56.072Z,5.46
2022-11-16T09:04:23.327Z,5.44
2022-11-16T09:06:52.659Z,5.43
2022-11-16T09:09:19.309Z,5.40
2022-11-16T09:11:45.904Z,5.31
2022-11-16T09:14:12.502Z,5.35
2022-11-16T09:16:39.008Z,5.45
2022-11-16T09:19:05.450Z,5.77
2022-11-16T09:21:31.993Z,5.73
2022-11-16T09:23:58.627Z,5.79
2022-11-16T09:26:26.248Z,5.79
2022-11-16T09:28:55.804Z,5.61
2022-11-16T09:31:23.883Z,5.64
2022-11-16T09:33:50.950Z,5.63
2022-11-16T09:36:17.649Z,5.94
2022-11-16T09:41:32.231Z,5.71
2022-11-16T09:44:04.507Z,5.63
2022-11-16T09:46:38.232Z,5.78
2022-11-16T09:49:17.325Z,5.81
2022-11-16T09:51:48.328Z,5.88
2022-11-16T09:54:20.023Z,5.96
2022-11-16T09:56:50.573Z,6.06
2022-11-16T09:59:29.336Z,6.25
2022-11-16T10:02:13.953Z,6.20
2022-11-16T10:04:57.744Z,5.71
2022-11-16T10:07:31.524Z,5.59
2022-11-16T10:09:58.175Z,6.08
2022-11-16T10:12:45.306Z,5.74
2022-11-16T10:15:48.801Z,6.00
2022-11-16T10:18:27.556Z,6.00
2022-11-16T10:21:18.730Z,6.12
2022-11-16T10:23:57.064Z,6.28
2022-11-16T10:26:26.429Z,6.44
2022-11-16T10:29:16.260Z,6.42
2022-11-16T10:31:53.797Z,6.58
2022-11-16T10:34:24.947Z,6.36
2022-11-16T10:36:56.446Z,6.14
2022-11-16T10:39:27.480Z,6.44
2022-11-16T10:41:56.460Z,6.33
2022-11-16T10:44:34.276Z,6.48
2022-11-16T10:47:06.212Z,6.77
2022-11-16T10:49:32.688Z,6.65
2022-11-16T10:51:59.321Z,6.41
2022-11-16T10:54:25.845Z,6.71
2022-11-16T10:56:59.145Z,6.81
2022-11-16T10:59:45.804Z,6.76
2022-11-16T11:02:24.615Z,6.87
2022-11-16T11:05:20.852Z,7.00
2022-11-16T11:08:00.061Z,6.97
2022-11-16T11:10:33.156Z,7.15
2022-11-16T11:13:10.026Z,7.34
2022-11-16T11:33:01.292Z,7.76
2022-11-16T11:35:31.541Z,7.53
2022-11-16T11:38:07.486Z,7.45
2022-11-16T11:40:34.654Z,7.81
2022-11-16T11:43:06.220Z,7.96
2022-11-16T11:45:49.366Z,7.97
2022-11-16T11:48:32.104Z,7.97
2022-11-16T11:51:12.110Z,8.10
2022-11-16T11:53:52.133Z,8.29
2022-11-16T11:56:19.311Z,8.26
2022-11-16T11:58:47.916Z,8.15
2022-11-16T12:01:29.693Z,8.57
2022-11-16T12:04:28.713Z,8.57
2022-11-16T12:07:08.939Z,8.65
2022-11-16T12:09:44.818Z,8.67
2022-11-16T12:12:47.412Z,8.37
2022-11-16T12:15:32.734Z,8.45
2022-11-16T12:18:07.790Z,8.33
2022-11-16T12:21:00.915Z,8.26
2022-11-16T12:24:00.241Z,8.27
2022-11-16T12:26:35.437Z,8.35
2022-11-16T12:29:27.349Z,8.39
2022-11-16T12:32:17.257Z,8.42
2022-11-16T12:34:43.763Z,8.63
2022-11-16T12:37:37.135Z,8.73
2022-11-16T12:40:14.719Z,8.65
2022-11-16T12:43:00.932Z,8.72
2022-11-16T12:45:36.451Z,8.76
2022-11-16T12:48:20.423Z,8.85
2022-11-16T12:51:13.068Z,8.83
2022-11-16T12:53:54.906Z,9.06
2022-11-16T12:56:58.297Z,9.18
2022-11-16T12:59:42.777Z,9.11
2022-11-16T13:02:26.718Z,9.13
2022-11-16T13:05:01.751Z,9.17
2022-11-16T13:07:36.291Z,9.00
2022-11-16T13:10:21.239Z,9.13
2022-11-16T13:13:03.938Z,9.39
2022-11-16T13:15:42.696Z,9.23
2022-11-16T13:18:16.724Z,9.54
2022-11-16T13:20:56.237Z,9.71
2022-11-16T13:23:22.735Z,9.74
2022-11-16T13:25:52.832Z,9.78
2022-11-16T13:28:33.278Z,9.81
2022-11-16T13:31:11.285Z,9.54
2022-11-16T13:33:50.241Z,9.70
2022-11-16T13:36:32.593Z,9.81
2022-11-16T13:38:59.192Z,9.84
2022-11-16T13:41:27.341Z,9.92
2022-11-16T13:43:53.992Z,9.76
2022-11-16T13:46:53.725Z,9.64
2022-11-16T13:49:23.565Z,9.58
2022-11-16T13:52:11.635Z,9.68
2022-11-16T13:54:50.732Z,9.60
2022-11-16T13:57:32.791Z,9.53
2022-11-16T14:00:02.515Z,9.50
2022-11-16T14:02:38.882Z,9.58
2022-11-16T14:05:23.884Z,9.67
2022-11-16T14:07:52.100Z,9.62
2022-11-16T14:10:44.819Z,9.47
2022-11-16T14:13:30.239Z,9.48
2022-11-16T14:16:17.142Z,9.40
2022-11-16T14:18:45.133Z,9.19
2022-11-16T14:21:11.792Z,8.93
2022-11-16T14:24:06.276Z,9.05
2022-11-16T14:26:50.977Z,9.04
2022-11-16T14:29:56.984Z,8.90
2022-11-16T14:32:27.219Z,8.65
2022-11-16T14:34:56.534Z,8.84
2022-11-16T14:37:24.386Z,8.69
2022-11-16T14:39:57.703Z,8.53
2022-11-16T14:42:29.859Z,8.56
2022-11-16T14:45:11.793Z,8.46
2022-11-16T14:47:39.033Z,8.46
2022-11-16T14:50:18.100Z,8.56
2022-11-16T14:52:48.648Z,8.55
2022-11-16T14:55:21.387Z,8.46
2022-11-16T14:57:48.198Z,8.46
2022-11-16T15:00:19.997Z,8.37
2022-11-16T15:02:52.062Z,8.34
2022-11-16T15:05:22.223Z,8.33
2022-11-16T15:07:52.026Z,8.22
2022-11-16T15:10:21.958Z,8.24
2022-11-16T15:12:52.900Z,8.28
2022-11-16T15:15:25.033Z,8.23
2022-11-16T15:17:53.298Z,8.27
2022-11-16T15:20:22.491Z,8.29
2022-11-16T15:22:54.044Z,8.21
2022-11-16T15:25:36.832Z,8.19
2022-11-16T15:28:06.595Z,8.13
2022-11-16T15:30:36.952Z,8.10
2022-11-16T15:33:15.413Z,8.04
2022-11-16T15:35:41.925Z,8.05
2022-11-16T15:38:17.916Z,8.04
2022-11-16T15:40:53.073Z,8.06
2022-11-16T15:43:23.354Z,8.02
2022-11-16T15:45:50.355Z,8.02
2022-11-16T15:48:23.243Z,7.93
2022-11-16T15:51:15.265Z,7.91
2022-11-16T15:53:44.191Z,7.91
2022-11-16T15:56:29.092Z,7.86
2022-11-16T15:58:58.945Z,7.86
2022-11-16T16:01:25.827Z,7.83
2022-11-16T16:04:05.028Z,7.88
2022-11-16T16:06:49.936Z,7.92
2022-11-16T16:09:30.438Z,7.90
2022-11-16T16:12:16.945Z,7.81
2022-11-16T16:14:43.940Z,7.76
2022-11-16T16:17:20.840Z,7.69
2022-11-16T16:19:54.768Z,7.66
2022-11-16T16:22:28.319Z,7.70
2022-11-16T16:24:55.262Z,7.65
2022-11-16T16:27:24.235Z,7.74
2022-11-16T16:29:57.222Z,7.78
2022-11-16T16:32:27.756Z,7.72
2022-11-16T16:34:56.165Z,7.50
2022-11-16T16:37:23.150Z,7.68
2022-11-16T16:39:49.677Z,7.58
2022-11-16T16:42:17.024Z,7.70
2022-11-16T16:44:45.192Z,7.74
2022-11-16T16:47:12.359Z,7.71
2022-11-16T16:49:38.961Z,7.73
2022-11-16T16:52:05.948Z,7.75
2022-11-16T16:54:32.564Z,7.80
2022-11-16T16:57:02.521Z,7.79
2022-11-16T16:59:32.643Z,7.75
2022-11-16T17:01:59.795Z,7.72
2022-11-16T17:04:26.478Z,7.72
2022-11-16T17:06:53.691Z,7.66
2022-11-16T17:09:20.455Z,7.65
2022-11-16T17:11:47.592Z,7.65
2022-11-16T17:14:14.426Z,7.50
2022-11-16T17:16:41.083Z,7.59
2022-11-16T17:19:07.636Z,7.45
2022-11-16T17:21:34.024Z,7.58
2022-11-16T17:24:00.620Z,7.51
2022-11-16T17:26:29.506Z,7.38
2022-11-16T17:28:57.466Z,7.44
2022-11-16T17:31:25.566Z,7.46
2022-11-16T17:33:52.609Z,7.45
2022-11-16T17:36:19.512Z,7.38
2022-11-16T17:38:46.915Z,7.35
2022-11-16T17:41:16.834Z,7.40
2022-11-16T17:43:45.137Z,7.32
2022-11-16T17:46:14.174Z,7.26
2022-11-16T17:48:43.179Z,7.22
2022-11-16T17:51:11.793Z,7.13
2022-11-16T17:53:44.181Z,7.14
2022-11-16T17:56:13.294Z,7.01
2022-11-16T17:58:40.268Z,7.05
2022-11-16T18:01:07.300Z,6.95
2022-11-16T18:03:37.998Z,7.01
2022-11-16T18:06:07.701Z,7.00
2022-11-16T18:08:35.880Z,6.99
2022-11-16T18:11:08.160Z,7.01
2022-11-16T18:13:34.980Z,6.96
2022-11-16T18:16:16.320Z,6.98
2022-11-16T18:18:44.268Z,6.95
2022-11-16T18:21:15.896Z,6.99
2022-11-16T18:23:46.510Z,7.04
2022-11-16T18:26:14.305Z,7.01
2022-11-16T18:28:41.278Z,7.00
2022-11-16T18:31:11.054Z,7.07
2022-11-16T18:33:38.652Z,7.08
2022-11-16T18:36:06.554Z,7.09
2022-11-16T18:38:33.274Z,6.87
2022-11-16T18:41:07.502Z,7.09
2022-11-16T18:43:34.751Z,6.86
2022-11-16T18:46:02.764Z,6.89
2022-11-16T18:48:29.558Z,6.89
2022-11-16T18:51:04.465Z,7.02
2022-11-16T18:53:32.559Z,6.92
2022-11-16T18:55:59.579Z,7.04
2022-11-16T19:01:16.470Z,6.88
2022-11-16T19:03:43.055Z,6.89
2022-11-16T19:06:10.388Z,6.82
2022-11-16T19:08:38.733Z,6.85
2022-11-16T19:11:07.766Z,6.80
2022-11-16T19:13:34.732Z,6.71
2022-11-16T19:16:01.505Z,6.90
2022-11-16T19:18:28.216Z,6.93
2022-11-16T19:21:10.068Z,6.94
2022-11-16T19:23:42.937Z,6.88
2022-11-16T19:26:12.213Z,6.89
2022-11-16T19:28:41.065Z,6.70
2022-11-16T19:31:11.105Z,6.68
2022-11-16T19:33:38.494Z,6.80
2022-11-16T19:36:07.474Z,6.77
2022-11-16T19:38:34.396Z,6.70
2022-11-16T19:41:01.024Z,6.82
2022-11-16T19:43:27.626Z,6.67
2022-11-16T19:45:54.130Z,6.75
2022-11-16T19:48:20.508Z,6.79
2022-11-16T19:50:46.977Z,6.78
2022-11-16T19:53:13.383Z,6.79
2022-11-16T19:55:39.991Z,6.78
2022-11-16T19:58:06.452Z,6.73
2022-11-16T20:00:32.898Z,6.74
2022-11-16T20:02:59.697Z,6.47
2022-11-16T20:05:26.139Z,6.66
2022-11-16T20:07:52.631Z,6.70
2022-11-16T20:10:19.127Z,6.65
2022-11-16T20:12:45.621Z,6.39
2022-11-16T20:15:12.007Z,6.55
2022-11-16T20:17:38.577Z,6.57
2022-11-16T20:20:05.761Z,6.55
2022-11-16T20:22:32.313Z,6.57
2022-11-16T20:24:58.714Z,6.38
2022-11-16T20:27:25.209Z,6.39
2022-11-16T20:29:51.556Z,6.34
2022-11-16T20:32:18.094Z,6.48
2022-11-16T20:34:44.505Z,6.45
2022-11-16T20:37:11.036Z,6.53
2022-11-16T20:39:37.506Z,6.54
2022-11-16T20:42:04.136Z,6.44
2022-11-16T20:44:31.260Z,6.56
2022-11-16T20:46:57.744Z,6.48
2022-11-16T20:49:24.242Z,6.47
2022-11-16T20:51:51.315Z,6.42
2022-11-16T20:54:17.847Z,6.45
2022-11-16T20:56:44.773Z,6.32
2022-11-16T20:59:11.248Z,6.17
2022-11-16T21:01:37.691Z,6.29
2022-11-16T21:04:05.505Z,6.32
2022-11-16T21:06:32.999Z,6.09
2022-11-16T21:08:59.918Z,6.12
2022-11-16T21:11:29.169Z,6.02
2022-11-16T21:14:28.042Z,6.11
2022-11-16T21:16:54.574Z,6.19
2022-11-16T21:19:21.089Z,5.99
2022-11-16T21:21:47.613Z,6.05
2022-11-16T21:24:14.022Z,5.94
2022-11-16T21:26:40.640Z,5.90
2022-11-16T21:29:07.262Z,6.04
2022-11-16T21:31:36.173Z,6.03
2022-11-16T21:34:02.752Z,6.03
2022-11-16T21:36:30.642Z,5.99
2022-11-16T21:38:58.122Z,5.88
2022-11-16T21:41:25.267Z,5.62
2022-11-16T21:43:51.831Z,5.67
2022-11-16T21:46:22.754Z,5.96
2022-11-16T21:48:50.992Z,5.83
2022-11-16T21:51:19.441Z,5.97
2022-11-16T21:53:46.269Z,5.98
2022-11-16T21:56:15.830Z,5.82
2022-11-16T21:58:42.609Z,5.95
2022-11-16T22:01:10.642Z,5.88
2022-11-16T22:03:38.281Z,5.49
2022-11-16T22:06:25.862Z,5.58
2022-11-16T22:08:52.761Z,5.75
2022-11-16T22:11:22.145Z,5.68
2022-11-16T22:13:49.782Z,5.62
2022-11-16T22:16:18.578Z,5.49
2022-11-16T22:18:45.167Z,5.39
2022-11-16T22:21:11.991Z,5.65
2022-11-16T22:23:38.992Z,5.67
2022-11-16T22:26:08.698Z,5.62
2022-11-16T22:28:36.206Z,5.40
2022-11-16T22:31:03.964Z,5.65
2022-11-16T22:33:31.120Z,5.65
2022-11-16T22:35:57.616Z,5.41
2022-11-16T22:38:24.099Z,5.49
2022-11-16T22:40:52.139Z,5.61
2022-11-16T22:43:27.001Z,5.48
2022-11-16T22:46:01.241Z,5.32
2022-11-16T22:48:34.560Z,5.51
2022-11-16T22:51:05.872Z,5.34
2022-11-16T22:53:33.151Z,5.38
2022-11-16T22:56:07.416Z,5.59
2022-11-16T22:58:35.251Z,5.45
2022-11-16T23:18:00.918Z,5.06
2022-11-16T23:21:09.266Z,5.20
2022-11-16T23:23:54.208Z,5.45
2022-11-16T23:26:42.894Z,5.50
2022-11-16T23:29:10.783Z,5.46
2022-11-16T23:31:38.175Z,5.41
2022-11-16T23:34:05.179Z,5.53
2022-11-16T23:36:31.822Z,5.54
2022-11-16T23:38:58.330Z,5.56
2022-11-16T23:41:43.490Z,5.66
2022-11-16T23:44:10.073Z,5.58
2022-11-16T23:46:36.546Z,5.60
2022-11-16T23:49:03.034Z,5.57
2022-11-16T23:51:29.461Z,5.72
2022-11-16T23:53:56.102Z,5.71
2022-11-16T23:56:23.092Z,5.79
2022-11-16T23:58:50.172Z,5.58
